Time;durP1;ratioP1;P1;durP2;ratioP2;P2;SDS_P1;SDS_P2;PMS_P1;PMS_P2;Temp;Humidity;BMP_temperature;BMP_pressure;BME280_temperature;BME280_humidity;BME280_pressure;Samples;Min_cycle;Max_cycle;Signal;HPM_P1;HPM_P2
2023/10/18 00:01:00;;;;;;;7.60;4.70;;;;;;;0.15;100.00;100928.00;109266;1253;73401;-54
2023/10/18 00:03:31;;;;;;;8.10;5.10;;;;;;;0.16;100.00;100932.15;109275;1253;67061;-54
2023/10/18 00:06:04;;;;;;;9.10;4.90;;;;;;;0.19;100.00;100933.20;109202;1253;72794;-54
2023/10/18 00:08:32;;;;;;;13.60;4.90;;;;;;;0.21;100.00;100936.44;109223;1253;59491;-54
2023/10/18 00:11:00;;;;;;;9.30;5.40;;;;;;;0.29;100.00;100934.61;109355;1252;58914;-54
2023/10/18 00:13:27;;;;;;;8.00;5.10;;;;;;;0.36;100.00;100933.84;109309;1253;75570;-54
2023/10/18 00:16:05;;;;;;;6.50;4.40;;;;;;;0.37;100.00;100936.84;109261;1255;67001;-53
2023/10/18 00:18:33;;;;;;;9.40;6.10;;;;;;;0.33;100.00;100933.63;109338;1254;72675;-53
2023/10/18 00:21:02;;;;;;;9.90;6.20;;;;;;;0.30;100.00;100938.00;109263;1253;60729;-53
2023/10/18 00:23:33;;;;;;;8.30;5.40;;;;;;;0.24;100.00;100940.39;109335;1253;59375;-54
2023/10/18 00:26:04;;;;;;;17.80;14.40;;;;;;;0.20;100.00;100938.58;109027;1253;272437;-57
2023/10/18 00:28:34;;;;;;;12.80;8.60;;;;;;;0.15;100.00;100939.75;109309;1253;68262;-54
2023/10/18 00:31:18;;;;;;;18.40;11.90;;;;;;;0.11;100.00;100938.34;109233;1253;72749;-54
2023/10/18 00:33:46;;;;;;;12.50;8.30;;;;;;;0.05;100.00;100939.61;109324;1253;60981;-56
2023/10/18 00:36:17;;;;;;;10.30;6.80;;;;;;;-0.01;100.00;100938.59;109282;1253;59054;-54
2023/10/18 00:38:45;;;;;;;12.40;6.50;;;;;;;-0.06;100.00;100937.70;109352;1253;74753;-53
2023/10/18 00:41:22;;;;;;;12.40;7.60;;;;;;;-0.11;100.00;100939.73;109185;1253;66949;-54
2023/10/18 00:43:52;;;;;;;12.30;7.10;;;;;;;-0.17;100.00;100940.27;109219;1253;72737;-54
2023/10/18 00:46:21;;;;;;;12.30;6.80;;;;;;;-0.21;100.00;100943.96;109361;1253;59348;-54
2023/10/18 00:48:49;;;;;;;14.50;7.60;;;;;;;-0.24;100.00;100944.48;109300;1253;58939;-54
2023/10/18 00:51:20;;;;;;;10.00;6.50;;;;;;;-0.27;100.00;100944.84;109336;1252;74754;-54
2023/10/18 00:53:48;;;;;;;10.50;6.40;;;;;;;-0.30;100.00;100946.90;109028;1253;67130;-54
2023/10/18 00:56:15;;;;;;;17.60;9.30;;;;;;;-0.29;100.00;100946.71;109108;1253;72653;-55
2023/10/18 00:58:44;;;;;;;22.10;11.50;;;;;;;-0.27;100.00;100952.51;109312;1253;59412;-54
2023/10/18 01:01:12;;;;;;;14.20;8.50;;;;;;;-0.24;100.00;100956.29;109331;1253;60258;-54
2023/10/18 01:03:46;;;;;;;17.10;9.30;;;;;;;-0.21;100.00;100955.95;109094;1253;73433;-57
2023/10/18 01:06:21;;;;;;;15.00;9.20;;;;;;;-0.19;100.00;100961.09;109304;1253;65820;-54
2023/10/18 01:08:50;;;;;;;19.30;10.50;;;;;;;-0.18;100.00;100962.41;109132;1253;72767;-54
2023/10/18 01:11:28;;;;;;;13.90;8.80;;;;;;;-0.19;100.00;100969.27;109271;1253;58895;-54
2023/10/18 01:13:55;;;;;;;12.80;8.60;;;;;;;-0.21;100.00;100966.02;109363;1253;59303;-54
2023/10/18 01:16:23;;;;;;;10.80;7.10;;;;;;;-0.23;100.00;100969.04;109182;1253;72892;-54
2023/10/18 01:18:53;;;;;;;11.90;7.20;;;;;;;-0.25;100.00;100968.77;109265;1253;66100;-53
2023/10/18 01:21:21;;;;;;;12.90;7.00;;;;;;;-0.26;100.00;100964.76;109304;1253;70376;-54
2023/10/18 01:23:50;;;;;;;13.40;7.60;;;;;;;-0.32;100.00;100967.50;109287;1253;61487;-54
2023/10/18 01:26:23;;;;;;;10.90;7.80;;;;;;;-0.31;100.00;100966.59;109322;1253;58903;-54
2023/10/18 01:28:54;;;;;;;9.00;6.20;;;;;;;-0.29;100.00;100964.09;109353;1253;73370;-54
2023/10/18 01:31:22;;;;;;;11.10;7.00;;;;;;;-0.28;100.00;100965.54;109229;1253;66965;-54
2023/10/18 01:33:50;;;;;;;11.60;7.20;;;;;;;-0.30;100.00;100964.83;109349;1253;71714;-54
2023/10/18 01:36:20;;;;;;;9.30;6.00;;;;;;;-0.31;100.00;100967.31;109099;1252;60949;-54
2023/10/18 01:38:54;;;;;;;13.40;6.90;;;;;;;-0.28;100.00;100965.88;109271;1253;60175;-54
2023/10/18 01:41:25;;;;;;;10.50;6.40;;;;;;;-0.25;100.00;100969.81;109247;1253;73482;-54
2023/10/18 01:44:07;;;;;;;10.40;6.70;;;;;;;-0.27;100.00;100967.39;109241;1255;67543;-54
2023/10/18 01:46:45;;;;;;;9.30;6.00;;;;;;;-0.20;100.00;100971.41;109103;1253;73079;-53
2023/10/18 01:49:16;;;;;;;9.90;6.30;;;;;;;-0.19;100.00;100970.64;109322;1253;59412;-54
2023/10/18 01:51:47;;;;;;;;;;;;;;;-0.18;100.00;100970.23;109387;1253;59208;-54
2023/10/18 01:54:18;;;;;;;10.70;6.80;;;;;;;-0.17;100.00;100974.79;109065;1252;74671;-54
2023/10/18 01:56:49;;;;;;;11.30;7.00;;;;;;;-0.18;100.00;100976.23;109317;1253;66956;-54
2023/10/18 01:59:24;;;;;;;;;;;;;;;-0.19;100.00;100978.70;109238;1253;73264;-54
2023/10/18 02:01:53;;;;;;;11.80;7.50;;;;;;;-0.22;100.00;100981.64;109161;1253;59675;-53
2023/10/18 02:04:25;;;;;;;9.40;6.40;;;;;;;-0.29;100.00;100981.33;109261;1253;60180;-54
2023/10/18 02:07:17;;;;;;;11.90;7.90;;;;;;;-0.35;100.00;100982.75;109343;1253;74898;-54
2023/10/18 02:09:57;;;;;;;13.50;7.50;;;;;;;-0.42;100.00;100980.83;109361;1253;66250;-53
2023/10/18 02:12:27;;;;;;;10.10;6.30;;;;;;;-0.49;100.00;100978.98;109313;1253;73115;-54
2023/10/18 02:15:00;;;;;;;10.40;7.40;;;;;;;-0.51;100.00;100978.07;109043;1253;61044;-54
2023/10/18 02:17:28;;;;;;;10.40;6.90;;;;;;;-0.47;100.00;100983.52;109370;1253;60120;-54
2023/10/18 02:19:58;;;;;;;11.70;7.70;;;;;;;-0.44;100.00;100979.21;109082;1253;74648;-54
2023/10/18 02:22:27;;;;;;;12.30;9.40;;;;;;;-0.40;100.00;100981.48;109268;1253;65302;-54
2023/10/18 02:24:56;;;;;;;13.00;8.90;;;;;;;-0.37;100.00;100982.35;109334;1253;72905;-54
2023/10/18 02:27:24;;;;;;;12.60;8.10;;;;;;;-0.37;100.00;100983.02;109352;1253;59403;-54
2023/10/18 02:29:52;;;;;;;13.50;7.80;;;;;;;-0.36;100.00;100983.66;109330;1253;60081;-57
2023/10/18 02:32:23;;;;;;;10.30;7.10;;;;;;;-0.35;100.00;100984.46;109385;1253;74722;-54
2023/10/18 02:34:52;;;;;;;14.40;7.80;;;;;;;-0.35;100.00;100984.77;109372;1253;66771;-54
2023/10/18 02:37:19;;;;;;;10.40;7.30;;;;;;;-0.35;100.00;100984.41;109316;1253;72651;-55
2023/10/18 02:39:49;;;;;;;12.70;8.50;;;;;;;-0.34;100.00;100986.10;109221;1254;59475;-53
2023/10/18 02:42:32;;;;;;;11.60;7.90;;;;;;;-0.34;100.00;100991.08;109301;1253;60058;-54
2023/10/18 02:45:00;;;;;;;13.40;7.10;;;;;;;-0.36;100.00;100989.30;109372;1253;74723;-54
2023/10/18 02:47:29;;;;;;;15.00;10.30;;;;;;;-0.37;100.00;100987.31;109189;1253;65674;-57
2023/10/18 02:49:58;;;;;;;14.50;10.10;;;;;;;-0.40;100.00;100984.58;109247;1253;72765;-54
2023/10/18 02:52:30;;;;;;;12.10;8.60;;;;;;;-0.44;100.00;100986.90;109340;1253;59261;-54
2023/10/18 02:55:01;;;;;;;13.30;9.60;;;;;;;-0.48;100.00;100989.20;109387;1253;60101;-54
2023/10/18 02:57:31;;;;;;;17.20;10.90;;;;;;;-0.52;100.00;100992.15;109338;1253;74044;-54
2023/10/18 03:00:10;;;;;;;14.60;8.60;;;;;;;-0.55;100.00;100996.41;109258;1253;66232;-54
2023/10/18 03:02:38;;;;;;;12.80;8.90;;;;;;;-0.56;100.00;100993.27;109268;1253;71465;-54
2023/10/18 03:05:06;;;;;;;13.70;8.70;;;;;;;-0.56;100.00;100996.02;109260;1253;58940;-54
2023/10/18 03:07:35;;;;;;;14.60;7.90;;;;;;;-0.56;100.00;100995.48;109372;1254;60345;-54
2023/10/18 03:10:13;;;;;;;10.10;7.10;;;;;;;-0.55;100.00;100993.55;109325;1253;74634;-54
2023/10/18 03:12:44;;;;;;;10.20;7.10;;;;;;;-0.54;100.00;100998.27;109278;1253;66856;-57
2023/10/18 03:15:19;;;;;;;10.60;7.30;;;;;;;-0.53;100.00;100996.15;109202;1253;70712;-54
2023/10/18 03:17:49;;;;;;;12.70;8.60;;;;;;;-0.52;100.00;100993.20;109299;1253;61317;-55
2023/10/18 03:20:26;;;;;;;13.80;8.50;;;;;;;-0.52;100.00;100993.16;109352;1253;58927;-54
2023/10/18 03:22:55;;;;;;;14.70;8.70;;;;;;;-0.51;100.00;100992.59;109373;1253;74865;-54
2023/10/18 03:25:30;;;;;;;13.30;7.40;;;;;;;-0.50;100.00;100990.63;109406;1253;66932;-54
2023/10/18 03:28:00;;;;;;;13.10;7.80;;;;;;;-0.50;100.00;100989.14;109385;1253;71405;-54
2023/10/18 03:30:44;;;;;;;14.00;9.30;;;;;;;-0.51;100.00;100990.55;109330;1253;59466;-54
2023/10/18 03:33:14;;;;;;;17.90;12.70;;;;;;;-0.53;100.00;100994.42;109375;1253;60174;-54
2023/10/18 03:35:43;;;;;;;14.00;9.50;;;;;;;-0.57;100.00;100993.66;109213;1253;74729;-55
2023/10/18 03:38:21;;;;;;;14.20;7.90;;;;;;;-0.62;100.00;100992.79;109240;1253;67011;-54
2023/10/18 03:40:56;;;;;;;15.10;9.10;;;;;;;-0.69;100.00;100991.98;109348;1253;72683;-54
2023/10/18 03:43:32;;;;;;;12.60;8.10;;;;;;;-0.75;100.00;100995.60;109392;1252;59469;-54
2023/10/18 03:48:40;;;;;;;16.90;9.90;;;;;;;-0.90;100.00;100998.36;109206;1253;74676;-55
2023/10/18 03:51:08;;;;;;;14.00;8.50;;;;;;;-0.96;100.00;100995.81;109134;1253;65633;-57
2023/10/18 03:53:38;;;;;;;12.00;7.80;;;;;;;-0.98;100.00;100998.33;109173;1253;72746;-54
2023/10/18 03:56:06;;;;;;;13.80;9.00;;;;;;;-0.97;100.00;100996.45;109117;1253;58954;-55
2023/10/18 03:58:35;;;;;;;13.80;8.70;;;;;;;-0.95;100.00;101000.02;109430;1253;60119;-54
2023/10/18 04:01:05;;;;;;;15.80;8.80;;;;;;;-0.90;100.00;101003.29;109271;1253;73445;-57
2023/10/18 04:03:35;;;;;;;16.90;11.40;;;;;;;-0.83;100.00;101006.66;109363;1253;65983;-54
2023/10/18 04:06:21;;;;;;;17.10;11.00;;;;;;;-0.77;100.00;101010.39;109365;1252;72777;-55
2023/10/18 04:08:48;;;;;;;15.00;9.50;;;;;;;-0.68;100.00;101012.44;109236;1253;59465;-55
2023/10/18 04:11:24;;;;;;;14.10;9.80;;;;;;;-0.58;100.00;101014.37;109351;1253;60741;-54
2023/10/18 04:13:52;;;;;;;18.20;9.80;;;;;;;-0.49;100.00;101017.08;109253;1253;73455;-55
2023/10/18 04:16:28;;;;;;;18.20;10.10;;;;;;;-0.41;100.00;101021.89;109402;1253;66903;-55
2023/10/18 04:18:56;;;;;;;16.10;9.50;;;;;;;-0.35;100.00;101023.73;109354;1253;73128;-55
2023/10/18 04:21:27;;;;;;;17.90;13.40;;;;;;;-0.32;100.00;101021.28;109337;1253;60895;-55
2023/10/18 04:23:56;;;;;;;18.90;13.40;;;;;;;-0.26;100.00;101026.75;109395;1253;59002;-55
2023/10/18 04:26:27;;;;;;;16.40;10.60;;;;;;;-0.19;100.00;101028.89;109258;1253;73487;-55
2023/10/18 04:28:57;;;;;;;16.70;10.50;;;;;;;-0.08;100.00;101030.05;109350;1253;67713;-55
2023/10/18 04:31:26;;;;;;;15.20;9.80;;;;;;;0.11;100.00;101030.45;109407;1253;72243;-54
2023/10/18 04:33:54;;;;;;;17.10;10.70;;;;;;;0.33;100.00;101036.38;109256;1253;60940;-55
2023/10/18 04:36:23;;;;;;;17.60;11.50;;;;;;;0.60;100.00;101035.34;109233;1253;58918;-59
2023/10/18 04:38:51;;;;;;;16.60;11.90;;;;;;;0.88;100.00;101036.61;109236;1253;75293;-55
2023/10/18 04:41:23;;;;;;;13.50;9.00;;;;;;;1.16;100.00;101037.84;109268;1253;65676;-55
2023/10/18 04:43:53;;;;;;;15.50;11.50;;;;;;;1.44;100.00;101041.06;109377;1253;72712;-55
2023/10/18 04:46:28;;;;;;;15.00;11.20;;;;;;;1.71;100.00;101044.15;109337;1253;58982;-58
2023/10/18 04:51:33;;;;;;;18.00;12.10;;;;;;;2.29;100.00;101050.02;109404;1253;74646;-54
2023/10/18 04:54:17;;;;;;;12.80;9.30;;;;;;;2.55;100.00;101051.08;109323;1253;67544;-58
2023/10/18 04:56:46;;;;;;;14.70;10.20;;;;;;;2.79;100.00;101044.66;109237;1253;71441;-56
2023/10/18 05:04:24;;;;;;;13.70;10.10;;;;;;;3.37;100.00;101053.69;109367;1253;74765;-55
2023/10/18 05:06:55;;;;;;;15.30;10.00;;;;;;;3.58;100.00;101057.40;109367;1253;67075;-55
2023/10/18 05:09:31;;;;;;;16.70;11.00;;;;;;;3.79;100.00;101057.00;109263;1253;72726;-55
2023/10/18 05:12:06;;;;;;;12.60;9.80;;;;;;;3.98;100.00;101058.39;109355;1253;59304;-56
2023/10/18 05:14:43;;;;;;;17.80;10.50;;;;;;;4.19;100.00;101062.41;109207;1253;59319;-55
2023/10/18 05:21:07;;;;;;;15.70;10.30;;;;;;;4.67;100.00;101064.25;109234;1253;67335;-56
2023/10/18 05:22:59;;;;;;;16.30;10.90;;;;;;;4.97;100.00;101058.83;109135;1253;72055;-56
2023/10/18 05:25:30;;;;;;;16.10;11.00;;;;;;;5.24;100.00;101058.84;109311;1253;60182;-55
2023/10/18 05:28:15;;;;;;;15.70;11.50;;;;;;;5.54;100.00;101060.81;109336;1253;60130;-54
2023/10/18 05:42:21;;;;;;;12.80;10.80;;;;;;;9.17;100.00;101042.16;109311;1253;60141;-55
2023/10/18 05:44:38;;;;;;;12.90;9.90;;;;;;;10.02;100.00;101031.55;109222;1253;73382;-54
2023/10/18 05:47:06;;;;;;;13.90;11.40;;;;;;;10.70;100.00;101012.21;109224;1253;67485;-55
2023/10/18 05:49:40;;;;;;;13.40;10.20;;;;;;;11.40;100.00;100988.21;109153;1253;72986;-55
2023/10/18 05:54:39;;;;;;;12.20;9.90;;;;;;;12.58;100.00;100935.81;109365;1253;59033;-55
2023/10/18 05:57:08;;;;;;;15.90;10.70;;;;;;;13.01;100.00;100920.78;109287;1253;73432;-57
2023/10/18 05:59:36;;;;;;;15.10;10.30;;;;;;;13.42;100.00;100911.14;109248;1253;66984;-56
2023/10/18 06:05:09;;;;;;;18.00;12.70;;;;;;;14.23;100.00;100892.89;108947;1253;60185;-56
2023/10/18 06:07:37;;;;;;;12.90;11.50;;;;;;;14.54;100.00;100889.95;109344;1253;60182;-56
2023/10/18 06:10:23;;;;;;;15.00;11.50;;;;;;;14.79;100.00;100888.96;109155;1253;74798;-56
2023/10/18 06:12:58;;;;;;;12.20;10.90;;;;;;;15.09;100.00;100892.05;109397;1253;66126;-55
2023/10/18 06:15:44;;;;;;;14.50;12.20;;;;;;;15.45;100.00;100890.23;109197;1253;71466;-55
2023/10/18 06:18:18;;;;;;;14.60;11.10;;;;;;;15.85;98.71;100886.67;109294;1253;60153;-56
2023/10/18 06:20:45;;;;;;;14.20;11.10;;;;;;;16.06;95.54;100884.80;109417;1253;60463;-56
2023/10/18 06:23:36;;;;;;;12.40;11.00;;;;;;;16.26;87.49;100892.95;109392;1253;74729;-56
2023/10/18 06:26:27;;;;;;;14.80;11.20;;;;;;;16.37;80.07;100890.02;109370;1253;65864;-56
2023/10/18 06:29:11;;;;;;;15.70;11.50;;;;;;;16.51;77.55;100891.20;109336;1253;72396;-55
2023/10/18 06:31:43;;;;;;;13.30;11.40;;;;;;;16.70;74.88;100892.06;109338;1253;60470;-56
2023/10/18 06:34:17;;;;;;;13.10;10.70;;;;;;;16.81;70.29;100893.57;109234;1258;60135;-55
2023/10/18 06:36:47;;;;;;;14.10;11.10;;;;;;;16.94;69.92;100889.88;109416;1253;74762;-56
2023/10/18 06:39:28;;;;;;;14.40;11.10;;;;;;;17.11;66.48;100888.83;109360;1253;65997;-56
2023/10/18 06:41:56;;;;;;;13.20;9.80;;;;;;;17.16;64.83;100887.95;109353;1253;71456;-55
2023/10/18 06:44:27;;;;;;;11.70;10.30;;;;;;;17.30;64.89;100881.46;109160;1253;59011;-56
2023/10/18 06:46:57;;;;;;;13.10;11.70;;;;;;;17.56;63.09;100885.67;109377;1253;61015;-56
2023/10/18 06:49:26;;;;;;;14.50;10.90;;;;;;;17.76;61.52;100882.02;109386;1253;74665;-57
2023/10/18 06:51:53;;;;;;;12.90;10.00;;;;;;;17.92;59.47;100884.27;109322;1253;65959;-55
2023/10/18 06:54:38;;;;;;;14.00;11.20;;;;;;;17.98;57.16;100882.66;109272;1253;72664;-57
2023/10/18 06:57:21;;;;;;;15.40;12.60;;;;;;;17.97;55.04;100882.63;109200;1253;59406;-55
2023/10/18 06:59:48;;;;;;;13.30;9.90;;;;;;;17.99;58.13;100878.88;109179;1258;59324;-57
2023/10/18 07:02:18;;;;;;;12.90;10.50;;;;;;;18.18;56.65;100881.59;109155;1253;74767;-56
2023/10/18 07:04:53;;;;;;;23.30;18.80;;;;;;;18.32;53.99;100872.64;109170;1253;66965;-56
2023/10/18 07:07:24;;;;;;;18.60;16.30;;;;;;;18.41;53.54;100871.33;109157;1253;73169;-56
2023/10/18 07:09:56;;;;;;;18.50;16.40;;;;;;;18.54;52.69;100871.70;109135;1253;59787;-56
2023/10/18 07:12:27;;;;;;;23.80;21.20;;;;;;;18.67;51.62;100867.02;109181;1253;59269;-56
2023/10/18 07:14:57;;;;;;;18.80;15.60;;;;;;;18.83;51.82;100863.84;109199;1253;74735;-55
2023/10/18 07:17:25;;;;;;;15.90;13.20;;;;;;;19.06;49.94;100857.41;109177;1253;66981;-57
2023/10/18 07:19:55;;;;;;;11.60;10.00;;;;;;;19.03;48.75;100858.09;109212;1253;72729;-55
2023/10/18 07:22:39;;;;;;;12.40;10.50;;;;;;;19.08;48.46;100858.10;109176;1253;59025;-55
2023/10/18 07:25:08;;;;;;;11.10;8.40;;;;;;;19.23;48.87;100855.71;109191;1253;59560;-55
2023/10/18 07:27:36;;;;;;;11.00;8.40;;;;;;;19.46;47.49;100856.58;109163;1253;75228;-55
2023/10/18 07:30:13;;;;;;;10.10;8.70;;;;;;;19.55;46.24;100850.63;109162;1253;65627;-55
2023/10/18 07:32:42;;;;;;;9.80;7.90;;;;;;;19.50;45.09;100851.89;109156;1253;71846;-55
2023/10/18 07:35:26;;;;;;;11.00;8.60;;;;;;;19.37;44.83;100849.08;109220;1253;59478;-57
2023/10/18 07:37:55;;;;;;;9.50;7.90;;;;;;;19.26;45.31;100849.05;109217;1253;60005;-55
2023/10/18 07:40:23;;;;;;;9.80;7.80;;;;;;;19.34;46.46;100850.10;109225;1253;73420;-55
2023/10/18 07:42:51;;;;;;;9.30;7.00;;;;;;;19.47;46.09;100844.66;109231;1253;67307;-57
2023/10/18 07:45:23;;;;;;;34.00;25.00;;;;;;;19.65;46.32;100842.89;109373;1253;73245;-56
2023/10/18 07:47:53;;;;;;;41.30;28.60;;;;;;;19.80;44.91;100835.96;109372;1253;60418;-55
2023/10/18 07:53:06;;;;;;;8.00;6.30;;;;;;;19.70;42.56;100835.04;109385;1257;73476;-55
2023/10/18 07:55:37;;;;;;;7.40;5.60;;;;;;;19.62;42.23;100829.73;109408;1253;67059;-55
2023/10/18 07:58:17;;;;;;;11.00;7.00;;;;;;;19.57;42.56;100830.88;109411;1253;73197;-55
2023/10/18 08:03:38;;;;;;;21.30;15.80;;;;;;;19.73;44.72;100824.10;109081;1253;59092;-56
2023/10/18 08:06:26;;;;;;;9.80;6.40;;;;;;;19.84;43.06;100823.55;109407;1253;74712;-56
2023/10/18 08:08:54;;;;;;;8.40;5.20;;;;;;;19.93;42.82;100824.86;109185;1253;67035;-56
2023/10/18 08:11:23;;;;;;;7.20;4.80;;;;;;;20.12;42.55;100825.82;109184;1253;71891;-55
2023/10/18 08:13:52;;;;;;;5.60;4.30;;;;;;;20.26;41.67;100821.34;109174;1253;60134;-55
2023/10/18 08:16:25;;;;;;;4.70;3.60;;;;;;;20.27;39.90;100817.39;109340;1253;59141;-56
2023/10/18 08:18:57;;;;;;;6.00;3.80;;;;;;;20.24;39.71;100816.38;109380;1253;76868;-55
2023/10/18 08:21:37;;;;;;;4.60;3.10;;;;;;;20.20;39.33;100809.94;109262;1253;66951;-55
2023/10/18 08:24:08;;;;;;;7.10;5.10;;;;;;;20.12;39.31;100808.08;109363;1253;72836;-56
2023/10/18 08:26:48;;;;;;;37.40;27.20;;;;;;;20.09;39.11;100801.92;109358;1253;61014;-55
2023/10/18 08:29:16;;;;;;;29.10;20.90;;;;;;;20.11;38.20;100803.92;109402;1253;59257;-55
2023/10/18 08:31:55;;;;;;;8.30;4.40;;;;;;;20.21;38.22;100805.84;109341;1253;74793;-57
2023/10/18 08:34:23;;;;;;;12.20;7.90;;;;;;;20.39;37.34;100804.98;109265;1253;68169;-56
2023/10/18 08:37:01;;;;;;;15.30;10.80;;;;;;;20.47;36.77;100802.55;109162;1253;72686;-55
2023/10/18 08:39:29;;;;;;;6.90;4.80;;;;;;;20.34;35.64;100807.48;109351;1253;62022;-57
2023/10/18 08:42:05;;;;;;;10.40;7.50;;;;;;;20.09;34.05;100804.27;109344;1253;60798;-56
2023/10/18 08:44:32;;;;;;;6.60;2.40;;;;;;;19.82;34.20;100801.59;109152;1253;74718;-56
2023/10/18 08:47:04;;;;;;;4.60;2.40;;;;;;;19.59;33.74;100798.52;109372;1253;67066;-56
2023/10/18 08:49:52;;;;;;;9.90;7.20;;;;;;;19.34;34.30;100794.43;109159;1253;75593;-56
2023/10/18 08:52:20;;;;;;;4.00;2.00;;;;;;;19.15;34.45;100792.96;109369;1254;60157;-56
2023/10/18 08:54:48;;;;;;;4.90;2.60;;;;;;;19.11;33.92;100795.34;109181;1253;63205;-56
2023/10/18 09:02:52;;;;;;;3.10;1.60;;;;;;;19.16;33.78;100785.58;109159;1253;73417;-56
2023/10/18 09:05:24;;;;;;;3.90;1.60;;;;;;;19.23;33.89;100781.91;109307;1253;62160;-56
2023/10/18 09:07:53;;;;;;;3.20;1.70;;;;;;;19.23;33.04;100782.02;109215;1253;60187;-56
2023/10/18 09:10:33;;;;;;;7.40;4.00;;;;;;;19.02;32.60;100782.02;109354;1256;74789;-59
2023/10/18 09:15:54;;;;;;;3.40;2.00;;;;;;;18.33;33.75;100778.67;109459;1254;72692;-58
2023/10/18 09:18:31;;;;;;;4.00;2.10;;;;;;;18.05;34.85;100777.45;109407;1254;60313;-56
2023/10/18 09:23:43;;;;;;;3.40;1.80;;;;;;;17.92;35.03;100773.11;109404;1254;75403;-56
2023/10/18 09:26:10;;;;;;;3.00;1.30;;;;;;;18.05;34.50;100770.08;109318;1254;66936;-56
2023/10/18 09:28:42;;;;;;;4.10;1.90;;;;;;;18.08;34.28;100766.05;109489;1253;72709;-56
2023/10/18 09:31:19;;;;;;;6.70;1.90;;;;;;;18.14;34.62;100765.26;109427;1254;59484;-58
2023/10/18 09:33:50;;;;;;;6.00;2.10;;;;;;;18.20;34.21;100759.00;109432;1254;59232;-57
2023/10/18 09:36:25;;;;;;;4.50;2.50;;;;;;;18.14;34.34;100755.35;109327;1253;74764;-57
2023/10/18 09:38:54;;;;;;;3.10;1.60;;;;;;;18.03;34.12;100756.03;109452;1254;66932;-58
2023/10/18 09:41:22;;;;;;;3.00;1.60;;;;;;;17.68;33.55;100754.67;109084;1257;71766;-54
2023/10/18 09:43:50;;;;;;;3.20;1.10;;;;;;;17.31;33.80;100758.55;109176;1254;62330;-55
2023/10/18 09:46:18;;;;;;;2.60;1.40;;;;;;;17.23;34.04;100752.20;109178;1254;62230;-57
2023/10/18 09:48:46;;;;;;;3.40;1.70;;;;;;;17.34;34.99;100747.38;109344;1253;76839;-55
2023/10/18 09:51:15;;;;;;;3.70;1.70;;;;;;;17.56;34.97;100743.05;109213;1258;70139;-55
2023/10/18 09:53:53;;;;;;;4.30;2.00;;;;;;;17.72;33.74;100733.04;109218;1253;72766;-57
2023/10/18 09:56:26;;;;;;;3.50;1.70;;;;;;;17.74;33.82;100733.39;109184;1255;61169;-55
2023/10/18 09:59:11;;;;;;;4.50;1.80;;;;;;;17.83;33.78;100730.44;109247;1253;58872;-56
2023/10/18 10:04:13;;;;;;;6.30;4.20;;;;;;;18.14;33.30;100725.23;109218;1257;68871;-57
2023/10/18 10:06:52;;;;;;;8.60;4.20;;;;;;;18.14;33.16;100722.50;109369;1253;72655;-56
2023/10/18 10:09:29;;;;;;;3.60;2.10;;;;;;;18.07;33.07;100715.36;109219;1253;62376;-57
2023/10/18 10:11:57;;;;;;;6.30;3.60;;;;;;;17.97;33.10;100719.70;109137;1253;62851;-55
2023/10/18 10:14:29;;;;;;;4.90;2.70;;;;;;;17.87;33.19;100716.16;109151;1254;73477;-57
2023/10/18 10:17:17;;;;;;;4.30;2.00;;;;;;;17.85;33.23;100715.42;109258;1253;66330;-55
2023/10/18 10:19:52;;;;;;;4.90;3.10;;;;;;;17.88;33.23;100710.70;109323;1253;73993;-57
2023/10/18 10:22:24;;;;;;;4.10;1.90;;;;;;;17.88;32.90;100704.41;109096;1253;59158;-55
2023/10/18 10:25:00;;;;;;;3.60;1.80;;;;;;;17.82;33.29;100703.88;109350;1253;58966;-55
2023/10/18 10:32:52;;;;;;;3.90;1.50;;;;;;;17.68;32.33;100695.96;109444;1254;73149;-56
2023/10/18 10:35:25;;;;;;;5.70;2.20;;;;;;;17.50;32.87;100694.20;109429;1254;58943;-59
2023/10/18 10:38:00;;;;;;;4.70;1.70;;;;;;;17.45;33.61;100692.30;109447;1254;59089;-56
2023/10/18 10:43:03;;;;;;;4.10;1.60;;;;;;;17.35;34.07;100688.75;109462;1253;67157;-55
2023/10/18 10:45:35;;;;;;;4.80;2.80;;;;;;;17.33;34.19;100683.51;109406;1254;72802;-56
2023/10/18 10:48:15;;;;;;;3.90;2.20;;;;;;;17.26;35.08;100689.59;109391;1254;62107;-55
2023/10/18 10:50:50;;;;;;;4.20;3.10;;;;;;;17.22;34.54;100686.20;109463;1252;61119;-55
2023/10/18 10:53:50;;;;;;;5.70;3.00;;;;;;;17.10;34.61;100688.27;109251;1260;73424;-56
2023/10/18 10:56:36;;;;;;;4.60;3.10;;;;;;;17.10;35.20;100691.28;109210;1254;66786;-56
2023/10/18 11:04:28;;;;;;;6.70;3.80;;;;;;;16.86;35.69;100681.45;109312;1254;61871;-57
2023/10/18 11:07:00;;;;;;;6.30;4.00;;;;;;;16.74;35.90;100677.60;109155;1254;75640;-55
2023/10/18 11:09:33;;;;;;;7.50;3.50;;;;;;;16.76;36.56;100674.35;109352;1253;68357;-55
2023/10/18 11:12:03;;;;;;;5.00;3.40;;;;;;;16.81;36.30;100671.96;109329;1254;72869;-55
2023/10/18 11:14:31;;;;;;;5.10;2.80;;;;;;;16.86;36.65;100666.55;109342;1253;62170;-55
2023/10/18 11:17:09;;;;;;;12.30;6.70;;;;;;;17.00;36.98;100661.41;109241;1254;59400;-55
2023/10/18 11:19:41;;;;;;;9.30;5.70;;;;;;;17.19;37.12;100657.88;109246;1255;75750;-55
2023/10/18 11:22:11;;;;;;;5.80;2.00;;;;;;;17.40;36.15;100659.02;109336;1254;67046;-56
2023/10/18 11:24:39;;;;;;;3.30;1.80;;;;;;;17.52;35.40;100654.36;109199;1253;71445;-57
2023/10/18 11:27:08;;;;;;;3.20;1.40;;;;;;;17.57;35.37;100655.80;109191;1253;59563;-55
2023/10/18 11:29:41;;;;;;;4.60;2.60;;;;;;;17.51;35.09;100652.05;109324;1252;59145;-57
2023/10/18 11:32:15;;;;;;;6.40;3.60;;;;;;;17.38;35.32;100648.52;109385;1254;73366;-56
2023/10/18 11:34:46;;;;;;;5.40;3.60;;;;;;;17.37;35.75;100642.48;109481;1253;65651;-55
2023/10/18 11:37:26;;;;;;;4.60;2.40;;;;;;;17.23;35.13;100634.78;109438;1253;71345;-55
2023/10/18 11:39:55;;;;;;;4.50;2.30;;;;;;;17.12;35.88;100630.55;109107;1252;61728;-56
2023/10/18 11:42:23;;;;;;;4.70;2.20;;;;;;;17.16;35.77;100629.42;109336;1254;60240;-56
2023/10/18 11:44:54;;;;;;;3.80;1.80;;;;;;;17.17;35.46;100620.82;109450;1252;75027;-56
2023/10/18 11:47:22;;;;;;;5.00;2.20;;;;;;;17.16;35.83;100623.42;109445;1257;66983;-56
2023/10/18 11:49:53;;;;;;;3.30;1.50;;;;;;;17.10;35.46;100621.01;109420;1253;74248;-58
2023/10/18 11:52:25;;;;;;;3.30;1.70;;;;;;;16.87;35.60;100620.84;109126;1254;59030;-57
2023/10/18 11:55:08;;;;;;;6.10;2.10;;;;;;;16.69;35.81;100622.91;109272;1254;59059;-55
2023/10/18 11:57:40;;;;;;;5.10;2.50;;;;;;;16.54;36.24;100625.84;109428;1254;74743;-55
2023/10/18 12:03:05;;;;;;;5.20;2.30;;;;;;;16.22;36.68;100619.77;109214;1254;71446;-57
2023/10/18 12:05:33;;;;;;;3.50;1.60;;;;;;;16.14;36.60;100620.64;109409;1253;59314;-57
2023/10/18 12:08:12;;;;;;;4.90;2.30;;;;;;;16.12;36.80;100619.17;109438;1252;60609;-57
2023/10/18 12:10:40;;;;;;;2.70;1.30;;;;;;;16.11;36.75;100617.88;109421;1255;73474;-55
2023/10/18 12:13:12;;;;;;;4.60;1.90;;;;;;;16.02;36.34;100616.98;109405;1253;68393;-55
2023/10/18 12:15:40;;;;;;;3.90;2.10;;;;;;;15.90;36.91;100614.78;109440;1253;73162;-57
2023/10/18 12:18:09;;;;;;;3.00;1.50;;;;;;;15.79;37.04;100615.43;109412;1254;60128;-55
2023/10/18 12:20:37;;;;;;;3.50;1.40;;;;;;;15.66;37.39;100618.70;109458;1253;60158;-57
2023/10/18 12:23:09;;;;;;;3.00;1.50;;;;;;;15.48;37.30;100613.65;109388;1253;74702;-56
2023/10/18 12:25:42;;;;;;;3.90;1.80;;;;;;;15.39;37.84;100610.15;109164;1254;350444;-56
2023/10/18 12:28:17;;;;;;;4.60;2.00;;;;;;;15.34;38.22;100610.11;109446;1253;74967;-55
2023/10/18 12:30:51;;;;;;;6.10;2.60;;;;;;;15.31;38.55;100607.34;109355;1254;62383;-55
2023/10/18 12:33:27;;;;;;;4.20;2.40;;;;;;;15.28;38.43;100605.40;109486;1252;59911;-56
2023/10/18 12:35:56;;;;;;;4.80;2.30;;;;;;;15.23;38.51;100599.83;109433;1253;76769;-55